Airfield :
LOGIN :

Register | Disclaimer

   EN    FR    IT 

 










Legend :    VFR   Marginal VFR   IFR   Intensive IFR   Very Intensive IFR
Visi :
Ceiling :
>= 8 km
>= 3000ft
5 to 8 km
1000 to 3000 ft
1500m to 5 km
500 to 1000 ft
800 to 1500m
200 to 500 ft
< 800m
< 200 ft
Symbols :   Thunderstorms  Fog  Heavy snow  Heavy precipitations  Wind > 20 kt
SIGMETs :     Misc.  Thunderstorms  Icing  Turbulence  Mountain Waves  Volcanic Ashes







- Airport Elevation : 13 ft
- IATA code : OST


EBOS - Oostend bruges Int.

CURRENT METAR :
  • 232220Z 01005KT 5000 BR FEW030 15/13 Q1020 TEMPO 4000 BR

EXPIRED METARs :
  • 232150Z 33003KT 6000 FEW030 15/13 Q1020 NOSIG
  • 232120Z 33002KT 6000 FEW030 16/13 Q1020 NOSIG
  • 232050Z 04003KT 7000 -SHRA FEW020CB SCT040 16/13 Q1020 RETS NOSIG
  • 232020Z 06007KT 010V170 3200 -TSRA SCT020CB 15/13 Q1021 TEMPO 2500 TSRA
  • 231950Z 08007KT 030V110 4000 -TSRA SCT020CB 16/13 Q1020 TEMPO 2500 TSRA
  • 231920Z 02008KT 9999 FEW030CB 16/12 Q1020 TEMPO 2500 TSRA

TAF TAF EBOS
Valid from the 23 at 18:00 until the 25 at 00:00 UTC


231700Z 2318/2424 03008KT 8000 SCT040
PROB30
TEMPO 2318/2321 VRB15G25KT 4000 SHRA
PROB40
TEMPO 2415/2421 VRB18G28KT 3500 SHRA TSRAGR
No reported NOTAMs for that airfield.
1 SIGMET reported for the Brussels FIR (EBBU) :
 
Frequent thunderstorms
EBBU SIGMET 04 VALID 231917/232317 EBBR
EBBU BRUSSELS FIR FRQ TS OBS S OF N5010 TOP ABV FL340 MOV W15KT NC=



MET'MAP, your aeronautical weather chart ! - Copyright ORBIFLY December 2007 - Disclaimer

ORBIFLY MET'MAP TEAM :

Programming & Development : Alexandra Zaïnal
Concept & Development : Baudouin d'Aumeries
Co-Development & Prog : Marc-Olivier Méhu
Technical & hardware support : Manuel Goepfert

Contact : metmap@orbifly.com




SOURCES & CREDITS :

   NOAA